sensor_id;sensor_type;location;lat;lon;timestamp;temperature;humidity
29353;DHT22;16344;50.364;8.944;2022-11-15T00:01:09;21.80;1.00
29353;DHT22;16344;50.364;8.944;2022-11-15T00:03:34;21.80;1.00
29353;DHT22;16344;50.364;8.944;2022-11-15T00:06:03;21.70;1.00
29353;DHT22;16344;50.364;8.944;2022-11-15T00:08:32;21.80;1.00
29353;DHT22;16344;50.364;8.944;2022-11-15T00:10:59;21.80;1.00
29353;DHT22;16344;50.364;8.944;2022-11-15T00:13:26;21.70;1.00
29353;DHT22;16344;50.364;8.944;2022-11-15T00:15:51;21.70;1.00
29353;DHT22;16344;50.364;8.944;2022-11-15T00:18:18;21.70;1.00
29353;DHT22;16344;50.364;8.944;2022-11-15T00:20:44;21.70;1.00
29353;DHT22;16344;50.364;8.944;2022-11-15T00:23:09;21.80;1.00
29353;DHT22;16344;50.364;8.944;2022-11-15T00:25:35;21.80;1.00
29353;DHT22;16344;50.364;8.944;2022-11-15T00:28:01;21.70;1.00
29353;DHT22;16344;50.364;8.944;2022-11-15T00:30:27;21.80;1.00
29353;DHT22;16344;50.364;8.944;2022-11-15T00:32:53;21.80;1.00
29353;DHT22;16344;50.364;8.944;2022-11-15T00:35:19;21.80;1.00
29353;DHT22;16344;50.364;8.944;2022-11-15T00:37:44;21.80;1.00
29353;DHT22;16344;50.364;8.944;2022-11-15T00:40:11;21.80;1.00
29353;DHT22;16344;50.364;8.944;2022-11-15T00:42:41;21.80;1.00
29353;DHT22;16344;50.364;8.944;2022-11-15T00:45:07;21.80;1.00
29353;DHT22;16344;50.364;8.944;2022-11-15T00:47:33;21.70;1.00
29353;DHT22;16344;50.364;8.944;2022-11-15T00:49:58;21.70;1.00
29353;DHT22;16344;50.364;8.944;2022-11-15T00:52:24;21.70;1.00
29353;DHT22;16344;50.364;8.944;2022-11-15T00:54:49;21.70;1.00
29353;DHT22;16344;50.364;8.944;2022-11-15T00:57:15;21.70;1.00
29353;DHT22;16344;50.364;8.944;2022-11-15T00:59:40;21.70;1.00
29353;DHT22;16344;50.364;8.944;2022-11-15T01:02:06;21.70;1.00
29353;DHT22;16344;50.364;8.944;2022-11-15T01:04:31;21.70;1.00
29353;DHT22;16344;50.364;8.944;2022-11-15T01:06:57;21.80;1.00
29353;DHT22;16344;50.364;8.944;2022-11-15T01:09:23;21.70;1.00
29353;DHT22;16344;50.364;8.944;2022-11-15T01:11:48;21.80;1.00
29353;DHT22;16344;50.364;8.944;2022-11-15T01:14:14;21.80;1.00
29353;DHT22;16344;50.364;8.944;2022-11-15T01:16:39;21.80;1.00
29353;DHT22;16344;50.364;8.944;2022-11-15T01:19:05;21.80;1.00
29353;DHT22;16344;50.364;8.944;2022-11-15T01:21:30;21.70;1.00
29353;DHT22;16344;50.364;8.944;2022-11-15T01:23:56;21.70;1.00
29353;DHT22;16344;50.364;8.944;2022-11-15T01:26:23;21.70;1.00
29353;DHT22;16344;50.364;8.944;2022-11-15T01:28:49;21.70;1.00
29353;DHT22;16344;50.364;8.944;2022-11-15T01:31:17;21.70;1.00
29353;DHT22;16344;50.364;8.944;2022-11-15T01:33:43;21.70;1.00
29353;DHT22;16344;50.364;8.944;2022-11-15T01:36:21;21.80;1.00
29353;DHT22;16344;50.364;8.944;2022-11-15T01:38:54;21.70;1.00
29353;DHT22;16344;50.364;8.944;2022-11-15T01:41:23;21.70;1.00
29353;DHT22;16344;50.364;8.944;2022-11-15T01:43:52;21.80;1.00
29353;DHT22;16344;50.364;8.944;2022-11-15T01:46:35;21.80;1.00
29353;DHT22;16344;50.364;8.944;2022-11-15T01:49:08;21.70;1.00
29353;DHT22;16344;50.364;8.944;2022-11-15T01:51:36;21.70;1.00
29353;DHT22;16344;50.364;8.944;2022-11-15T01:54:07;21.80;1.00
29353;DHT22;16344;50.364;8.944;2022-11-15T01:56:38;21.70;1.00
29353;DHT22;16344;50.364;8.944;2022-11-15T01:59:08;21.70;1.00
29353;DHT22;16344;50.364;8.944;2022-11-15T02:01:34;21.70;1.00
29353;DHT22;16344;50.364;8.944;2022-11-15T02:04:04;21.70;1.00
29353;DHT22;16344;50.364;8.944;2022-11-15T02:06:31;21.80;1.00
29353;DHT22;16344;50.364;8.944;2022-11-15T02:08:57;21.70;1.00
29353;DHT22;16344;50.364;8.944;2022-11-15T02:11:23;21.70;1.00
29353;DHT22;16344;50.364;8.944;2022-11-15T02:13:49;21.70;1.00
29353;DHT22;16344;50.364;8.944;2022-11-15T02:22:22;21.80;1.00
29353;DHT22;16344;50.364;8.944;2022-11-15T02:25:20;21.70;1.00
29353;DHT22;16344;50.364;8.944;2022-11-15T02:28:06;21.70;1.00
29353;DHT22;16344;50.364;8.944;2022-11-15T02:30:48;21.70;1.00
29353;DHT22;16344;50.364;8.944;2022-11-15T02:36:05;21.70;1.00
29353;DHT22;16344;50.364;8.944;2022-11-15T02:41:31;21.70;1.00
29353;DHT22;16344;50.364;8.944;2022-11-15T02:44:05;21.70;1.00
29353;DHT22;16344;50.364;8.944;2022-11-15T02:46:40;21.70;1.00
29353;DHT22;16344;50.364;8.944;2022-11-15T02:49:28;21.70;1.00
29353;DHT22;16344;50.364;8.944;2022-11-15T02:51:55;21.70;1.00
29353;DHT22;16344;50.364;8.944;2022-11-15T02:54:23;21.70;1.00
29353;DHT22;16344;50.364;8.944;2022-11-15T02:56:52;21.70;1.00
29353;DHT22;16344;50.364;8.944;2022-11-15T03:07:15;21.70;1.00
29353;DHT22;16344;50.364;8.944;2022-11-15T03:09:54;21.70;1.00
29353;DHT22;16344;50.364;8.944;2022-11-15T03:12:45;21.70;1.00
29353;DHT22;16344;50.364;8.944;2022-11-15T03:16:18;21.70;1.00
29353;DHT22;16344;50.364;8.944;2022-11-15T03:18:23;21.70;1.00
29353;DHT22;16344;50.364;8.944;2022-11-15T03:20:50;21.70;1.00
29353;DHT22;16344;50.364;8.944;2022-11-15T03:23:17;21.70;1.00
29353;DHT22;16344;50.364;8.944;2022-11-15T03:25:47;21.70;1.00
29353;DHT22;16344;50.364;8.944;2022-11-15T03:28:20;21.70;1.00
29353;DHT22;16344;50.364;8.944;2022-11-15T03:30:49;21.70;1.00
29353;DHT22;16344;50.364;8.944;2022-11-15T03:33:16;21.70;1.00
29353;DHT22;16344;50.364;8.944;2022-11-15T03:35:44;21.70;1.00
29353;DHT22;16344;50.364;8.944;2022-11-15T03:38:25;21.70;1.00
29353;DHT22;16344;50.364;8.944;2022-11-15T03:41:04;21.60;1.00
29353;DHT22;16344;50.364;8.944;2022-11-15T03:43:51;21.60;1.00
29353;DHT22;16344;50.364;8.944;2022-11-15T03:46:28;21.60;1.00
29353;DHT22;16344;50.364;8.944;2022-11-15T03:49:07;21.60;1.00
29353;DHT22;16344;50.364;8.944;2022-11-15T03:51:34;21.70;1.00
29353;DHT22;16344;50.364;8.944;2022-11-15T03:54:03;21.70;1.00
29353;DHT22;16344;50.364;8.944;2022-11-15T03:56:29;21.70;1.00
29353;DHT22;16344;50.364;8.944;2022-11-15T03:58:54;21.70;1.00
29353;DHT22;16344;50.364;8.944;2022-11-15T04:01:20;21.70;1.00
29353;DHT22;16344;50.364;8.944;2022-11-15T04:03:45;21.70;1.00
29353;DHT22;16344;50.364;8.944;2022-11-15T04:06:11;21.70;1.00
29353;DHT22;16344;50.364;8.944;2022-11-15T04:08:36;21.70;1.00
29353;DHT22;16344;50.364;8.944;2022-11-15T04:11:02;21.60;1.00
29353;DHT22;16344;50.364;8.944;2022-11-15T04:13:27;21.60;1.00
29353;DHT22;16344;50.364;8.944;2022-11-15T04:15:53;21.60;1.00
29353;DHT22;16344;50.364;8.944;2022-11-15T04:18:18;21.60;1.00
29353;DHT22;16344;50.364;8.944;2022-11-15T04:20:44;21.60;1.00
29353;DHT22;16344;50.364;8.944;2022-11-15T04:23:28;21.60;1.00
29353;DHT22;16344;50.364;8.944;2022-11-15T04:26:16;21.60;1.00
29353;DHT22;16344;50.364;8.944;2022-11-15T04:28:42;21.60;1.00
29353;DHT22;16344;50.364;8.944;2022-11-15T04:31:26;21.70;1.00
29353;DHT22;16344;50.364;8.944;2022-11-15T04:33:53;21.70;1.00
29353;DHT22;16344;50.364;8.944;2022-11-15T04:36:19;21.70;1.00
29353;DHT22;16344;50.364;8.944;2022-11-15T04:39:04;21.70;1.00
29353;DHT22;16344;50.364;8.944;2022-11-15T04:41:29;21.70;1.00
29353;DHT22;16344;50.364;8.944;2022-11-15T04:43:55;21.70;1.00
29353;DHT22;16344;50.364;8.944;2022-11-15T04:46:21;21.70;1.00
29353;DHT22;16344;50.364;8.944;2022-11-15T04:48:47;21.60;1.00
29353;DHT22;16344;50.364;8.944;2022-11-15T04:51:13;21.50;1.00
29353;DHT22;16344;50.364;8.944;2022-11-15T04:53:38;21.50;1.00
29353;DHT22;16344;50.364;8.944;2022-11-15T04:56:04;21.60;1.00
29353;DHT22;16344;50.364;8.944;2022-11-15T04:58:30;21.60;1.00
29353;DHT22;16344;50.364;8.944;2022-11-15T05:00:55;21.60;1.00
29353;DHT22;16344;50.364;8.944;2022-11-15T05:03:21;21.60;1.00
29353;DHT22;16344;50.364;8.944;2022-11-15T05:06:05;21.60;1.00
29353;DHT22;16344;50.364;8.944;2022-11-15T05:08:31;21.60;1.00
29353;DHT22;16344;50.364;8.944;2022-11-15T05:10:56;21.60;1.00
29353;DHT22;16344;50.364;8.944;2022-11-15T05:13:22;21.60;1.00
29353;DHT22;16344;50.364;8.944;2022-11-15T05:15:48;21.60;1.00
29353;DHT22;16344;50.364;8.944;2022-11-15T05:18:13;21.60;1.00
29353;DHT22;16344;50.364;8.944;2022-11-15T05:20:39;21.60;1.00
29353;DHT22;16344;50.364;8.944;2022-11-15T05:23:04;21.70;1.00
29353;DHT22;16344;50.364;8.944;2022-11-15T05:25:30;21.70;1.00
29353;DHT22;16344;50.364;8.944;2022-11-15T05:27:55;21.70;1.00
29353;DHT22;16344;50.364;8.944;2022-11-15T05:30:21;21.70;1.00
29353;DHT22;16344;50.364;8.944;2022-11-15T05:32:47;21.80;1.00
29353;DHT22;16344;50.364;8.944;2022-11-15T05:35:21;21.80;1.00
29353;DHT22;16344;50.364;8.944;2022-11-15T05:37:49;21.70;1.00
29353;DHT22;16344;50.364;8.944;2022-11-15T05:40:15;21.70;1.00
29353;DHT22;16344;50.364;8.944;2022-11-15T05:42:41;21.60;1.00
29353;DHT22;16344;50.364;8.944;2022-11-15T05:45:08;21.60;1.00
29353;DHT22;16344;50.364;8.944;2022-11-15T05:47:36;21.60;1.00
29353;DHT22;16344;50.364;8.944;2022-11-15T05:50:03;21.60;1.00
29353;DHT22;16344;50.364;8.944;2022-11-15T05:52:31;21.60;1.00
29353;DHT22;16344;50.364;8.944;2022-11-15T05:54:58;21.60;1.00
29353;DHT22;16344;50.364;8.944;2022-11-15T05:57:24;21.70;1.00
29353;DHT22;16344;50.364;8.944;2022-11-15T05:59:50;21.80;1.00
29353;DHT22;16344;50.364;8.944;2022-11-15T06:02:16;21.80;1.00
29353;DHT22;16344;50.364;8.944;2022-11-15T06:04:41;21.80;1.00
29353;DHT22;16344;50.364;8.944;2022-11-15T06:07:07;21.80;1.00
29353;DHT22;16344;50.364;8.944;2022-11-15T06:09:32;21.80;1.00
29353;DHT22;16344;50.364;8.944;2022-11-15T06:11:58;21.80;1.00
29353;DHT22;16344;50.364;8.944;2022-11-15T06:14:23;21.80;1.00
29353;DHT22;16344;50.364;8.944;2022-11-15T06:16:49;21.70;1.00
29353;DHT22;16344;50.364;8.944;2022-11-15T06:19:15;21.70;1.00
29353;DHT22;16344;50.364;8.944;2022-11-15T06:21:40;21.70;1.00
29353;DHT22;16344;50.364;8.944;2022-11-15T06:24:06;21.70;1.00
29353;DHT22;16344;50.364;8.944;2022-11-15T06:26:32;21.70;1.00
29353;DHT22;16344;50.364;8.944;2022-11-15T06:28:57;21.70;1.00
29353;DHT22;16344;50.364;8.944;2022-11-15T06:31:23;21.80;1.00
29353;DHT22;16344;50.364;8.944;2022-11-15T06:33:48;21.80;1.00
29353;DHT22;16344;50.364;8.944;2022-11-15T06:36:15;21.80;1.00
29353;DHT22;16344;50.364;8.944;2022-11-15T06:38:45;21.80;1.00
29353;DHT22;16344;50.364;8.944;2022-11-15T06:41:12;21.80;1.00
29353;DHT22;16344;50.364;8.944;2022-11-15T06:43:38;21.90;1.00
29353;DHT22;16344;50.364;8.944;2022-11-15T06:46:05;21.90;1.00
29353;DHT22;16344;50.364;8.944;2022-11-15T06:48:31;21.90;1.00
29353;DHT22;16344;50.364;8.944;2022-11-15T06:50:59;21.80;1.00
29353;DHT22;16344;50.364;8.944;2022-11-15T06:53:26;21.80;1.00
29353;DHT22;16344;50.364;8.944;2022-11-15T06:55:52;21.70;1.00
29353;DHT22;16344;50.364;8.944;2022-11-15T06:58:18;21.70;1.00
29353;DHT22;16344;50.364;8.944;2022-11-15T07:00:44;21.80;1.00
29353;DHT22;16344;50.364;8.944;2022-11-15T07:03:10;21.90;1.00
29353;DHT22;16344;50.364;8.944;2022-11-15T07:05:36;21.90;1.00
29353;DHT22;16344;50.364;8.944;2022-11-15T07:08:02;21.90;1.00
29353;DHT22;16344;50.364;8.944;2022-11-15T07:10:28;21.90;1.00
29353;DHT22;16344;50.364;8.944;2022-11-15T07:12:54;21.90;1.00
29353;DHT22;16344;50.364;8.944;2022-11-15T07:15:24;21.80;1.00
29353;DHT22;16344;50.364;8.944;2022-11-15T07:17:51;21.80;1.00
29353;DHT22;16344;50.364;8.944;2022-11-15T07:20:17;21.70;1.00
29353;DHT22;16344;50.364;8.944;2022-11-15T07:22:43;21.60;1.00
29353;DHT22;16344;50.364;8.944;2022-11-15T07:25:10;21.70;1.00
29353;DHT22;16344;50.364;8.944;2022-11-15T07:27:36;21.70;1.00
29353;DHT22;16344;50.364;8.944;2022-11-15T07:30:03;21.80;1.00
29353;DHT22;16344;50.364;8.944;2022-11-15T07:32:28;21.80;1.00
29353;DHT22;16344;50.364;8.944;2022-11-15T07:34:54;21.80;1.00
29353;DHT22;16344;50.364;8.944;2022-11-15T07:37:19;21.70;1.00
29353;DHT22;16344;50.364;8.944;2022-11-15T07:39:45;21.70;1.00
29353;DHT22;16344;50.364;8.944;2022-11-15T07:42:10;21.70;1.00
29353;DHT22;16344;50.364;8.944;2022-11-15T07:44:55;21.70;1.00
29353;DHT22;16344;50.364;8.944;2022-11-15T07:47:20;21.70;1.00
29353;DHT22;16344;50.364;8.944;2022-11-15T07:49:46;21.60;1.00
29353;DHT22;16344;50.364;8.944;2022-11-15T07:52:12;21.60;1.00
29353;DHT22;16344;50.364;8.944;2022-11-15T07:54:38;21.70;1.00
29353;DHT22;16344;50.364;8.944;2022-11-15T07:57:04;21.80;1.00
29353;DHT22;16344;50.364;8.944;2022-11-15T07:59:30;21.80;1.00
29353;DHT22;16344;50.364;8.944;2022-11-15T08:01:55;21.70;1.00
29353;DHT22;16344;50.364;8.944;2022-11-15T08:04:21;21.80;1.00
29353;DHT22;16344;50.364;8.944;2022-11-15T08:06:47;21.70;1.00
29353;DHT22;16344;50.364;8.944;2022-11-15T08:09:12;21.70;1.00
29353;DHT22;16344;50.364;8.944;2022-11-15T08:11:38;21.80;1.00
29353;DHT22;16344;50.364;8.944;2022-11-15T08:14:03;21.90;1.00
29353;DHT22;16344;50.364;8.944;2022-11-15T08:16:29;21.90;1.00
29353;DHT22;16344;50.364;8.944;2022-11-15T08:18:54;22.00;1.00
29353;DHT22;16344;50.364;8.944;2022-11-15T08:21:21;22.20;1.00
29353;DHT22;16344;50.364;8.944;2022-11-15T08:23:46;22.10;1.00
29353;DHT22;16344;50.364;8.944;2022-11-15T08:26:12;22.20;1.00
29353;DHT22;16344;50.364;8.944;2022-11-15T08:28:38;22.20;1.00
29353;DHT22;16344;50.364;8.944;2022-11-15T08:31:04;22.10;1.00
29353;DHT22;16344;50.364;8.944;2022-11-15T08:33:31;22.20;1.00
29353;DHT22;16344;50.364;8.944;2022-11-15T08:35:58;22.20;1.00
29353;DHT22;16344;50.364;8.944;2022-11-15T08:38:23;22.10;1.00
29353;DHT22;16344;50.364;8.944;2022-11-15T08:40:51;22.10;1.00
29353;DHT22;16344;50.364;8.944;2022-11-15T08:43:19;22.20;1.00
29353;DHT22;16344;50.364;8.944;2022-11-15T08:45:44;22.20;1.00
29353;DHT22;16344;50.364;8.944;2022-11-15T08:48:10;22.10;1.00
29353;DHT22;16344;50.364;8.944;2022-11-15T08:50:36;22.10;1.00
29353;DHT22;16344;50.364;8.944;2022-11-15T08:53:09;22.00;1.00
29353;DHT22;16344;50.364;8.944;2022-11-15T08:55:39;22.00;1.00
29353;DHT22;16344;50.364;8.944;2022-11-15T08:58:04;22.00;1.00
29353;DHT22;16344;50.364;8.944;2022-11-15T09:00:30;22.00;1.00
29353;DHT22;16344;50.364;8.944;2022-11-15T09:02:56;21.90;1.00
29353;DHT22;16344;50.364;8.944;2022-11-15T09:05:21;22.00;1.00
29353;DHT22;16344;50.364;8.944;2022-11-15T09:07:47;22.00;1.00
29353;DHT22;16344;50.364;8.944;2022-11-15T09:10:12;21.90;1.00
29353;DHT22;16344;50.364;8.944;2022-11-15T09:12:38;21.90;1.00
29353;DHT22;16344;50.364;8.944;2022-11-15T09:15:05;21.90;1.00
29353;DHT22;16344;50.364;8.944;2022-11-15T09:17:31;21.90;1.00
29353;DHT22;16344;50.364;8.944;2022-11-15T09:19:57;21.90;1.00
29353;DHT22;16344;50.364;8.944;2022-11-15T09:22:22;21.80;1.00
29353;DHT22;16344;50.364;8.944;2022-11-15T09:24:48;21.90;1.00
29353;DHT22;16344;50.364;8.944;2022-11-15T09:27:13;21.90;1.00
29353;DHT22;16344;50.364;8.944;2022-11-15T09:29:39;21.90;1.00
29353;DHT22;16344;50.364;8.944;2022-11-15T09:32:05;21.90;1.00
29353;DHT22;16344;50.364;8.944;2022-11-15T09:34:31;21.90;1.00
29353;DHT22;16344;50.364;8.944;2022-11-15T09:36:56;21.90;1.00
29353;DHT22;16344;50.364;8.944;2022-11-15T09:39:22;21.90;1.00
29353;DHT22;16344;50.364;8.944;2022-11-15T09:44:55;21.90;1.00
29353;DHT22;16344;50.364;8.944;2022-11-15T09:47:53;21.90;1.00
29353;DHT22;16344;50.364;8.944;2022-11-15T09:50:42;21.90;1.00
29353;DHT22;16344;50.364;8.944;2022-11-15T09:53:29;21.90;1.00
29353;DHT22;16344;50.364;8.944;2022-11-15T09:56:02;21.90;1.00
29353;DHT22;16344;50.364;8.944;2022-11-15T09:59:11;22.00;1.00
29353;DHT22;16344;50.364;8.944;2022-11-15T10:01:58;22.10;1.00
29353;DHT22;16344;50.364;8.944;2022-11-15T10:04:26;22.00;1.00
29353;DHT22;16344;50.364;8.944;2022-11-15T10:07:19;22.10;1.00
29353;DHT22;16344;50.364;8.944;2022-11-15T10:12:33;22.00;1.00
29353;DHT22;16344;50.364;8.944;2022-11-15T10:15:06;22.10;1.00
29353;DHT22;16344;50.364;8.944;2022-11-15T10:17:41;22.10;1.00
29353;DHT22;16344;50.364;8.944;2022-11-15T10:20:18;22.10;1.00
29353;DHT22;16344;50.364;8.944;2022-11-15T10:22:50;22.10;1.00
29353;DHT22;16344;50.364;8.944;2022-11-15T10:25:25;22.10;1.00
29353;DHT22;16344;50.364;8.944;2022-11-15T10:28:16;22.20;1.00
29353;DHT22;16344;50.364;8.944;2022-11-15T10:30:48;22.20;1.00
29353;DHT22;16344;50.364;8.944;2022-11-15T10:44:12;22.10;1.00
29353;DHT22;16344;50.364;8.944;2022-11-15T10:46:43;22.10;1.00
29353;DHT22;16344;50.364;8.944;2022-11-15T10:49:29;22.20;1.00
29353;DHT22;16344;50.364;8.944;2022-11-15T10:56:55;22.00;1.00
29353;DHT22;16344;50.364;8.944;2022-11-15T10:59:26;22.10;1.00
29353;DHT22;16344;50.364;8.944;2022-11-15T11:01:52;22.10;1.00
29353;DHT22;16344;50.364;8.944;2022-11-15T11:04:18;22.20;1.00
29353;DHT22;16344;50.364;8.944;2022-11-15T11:06:51;22.20;1.00
29353;DHT22;16344;50.364;8.944;2022-11-15T11:09:33;22.20;1.00
29353;DHT22;16344;50.364;8.944;2022-11-15T11:12:00;22.10;1.00
29353;DHT22;16344;50.364;8.944;2022-11-15T11:14:33;22.20;1.00
29353;DHT22;16344;50.364;8.944;2022-11-15T11:25:19;22.00;1.00
29353;DHT22;16344;50.364;8.944;2022-11-15T11:28:14;22.00;1.00
29353;DHT22;16344;50.364;8.944;2022-11-15T11:34:10;22.00;1.00
29353;DHT22;16344;50.364;8.944;2022-11-15T11:47:28;22.10;1.00
29353;DHT22;16344;50.364;8.944;2022-11-15T11:50:10;22.10;1.00
29353;DHT22;16344;50.364;8.944;2022-11-15T11:53:27;22.00;1.00
29353;DHT22;16344;50.364;8.944;2022-11-15T11:55:45;22.00;1.00
29353;DHT22;16344;50.364;8.944;2022-11-15T12:00:56;22.00;1.00
29353;DHT22;16344;50.364;8.944;2022-11-15T12:06:16;21.90;1.00
29353;DHT22;16344;50.364;8.944;2022-11-15T12:09:04;21.90;1.00
29353;DHT22;16344;50.364;8.944;2022-11-15T12:14:38;22.00;1.00
29353;DHT22;16344;50.364;8.944;2022-11-15T12:17:07;22.00;1.00
29353;DHT22;16344;50.364;8.944;2022-11-15T12:19:32;22.10;1.00
29353;DHT22;16344;50.364;8.944;2022-11-15T12:25:04;22.10;1.00
29353;DHT22;16344;50.364;8.944;2022-11-15T12:30:23;22.10;1.00
29353;DHT22;16344;50.364;8.944;2022-11-15T12:33:00;22.10;1.00
29353;DHT22;16344;50.364;8.944;2022-11-15T12:35:38;22.10;1.00
29353;DHT22;16344;50.364;8.944;2022-11-15T12:38:09;21.90;1.00
29353;DHT22;16344;50.364;8.944;2022-11-15T12:40:38;21.90;1.00
29353;DHT22;16344;50.364;8.944;2022-11-15T12:45:36;21.80;1.00
29353;DHT22;16344;50.364;8.944;2022-11-15T13:06:52;21.90;1.00
29353;DHT22;16344;50.364;8.944;2022-11-15T13:12:00;22.00;1.00
29353;DHT22;16344;50.364;8.944;2022-11-15T13:14:46;22.00;1.00
29353;DHT22;16344;50.364;8.944;2022-11-15T13:19:46;21.80;1.00
29353;DHT22;16344;50.364;8.944;2022-11-15T13:22:12;21.80;1.00
29353;DHT22;16344;50.364;8.944;2022-11-15T13:24:57;21.80;1.00
29353;DHT22;16344;50.364;8.944;2022-11-15T13:27:23;21.70;1.00
29353;DHT22;16344;50.364;8.944;2022-11-15T13:29:48;21.70;1.00
29353;DHT22;16344;50.364;8.944;2022-11-15T13:32:15;21.90;1.00
29353;DHT22;16344;50.364;8.944;2022-11-15T13:34:46;21.90;1.00
29353;DHT22;16344;50.364;8.944;2022-11-15T13:39:47;22.00;1.00
29353;DHT22;16344;50.364;8.944;2022-11-15T13:42:22;22.00;1.00
29353;DHT22;16344;50.364;8.944;2022-11-15T13:45:02;22.00;1.00
29353;DHT22;16344;50.364;8.944;2022-11-15T13:47:29;22.00;1.00
29353;DHT22;16344;50.364;8.944;2022-11-15T13:49:59;22.00;1.00
29353;DHT22;16344;50.364;8.944;2022-11-15T13:52:33;21.90;1.00
29353;DHT22;16344;50.364;8.944;2022-11-15T13:55:21;21.80;1.00
29353;DHT22;16344;50.364;8.944;2022-11-15T13:57:53;21.70;1.00
29353;DHT22;16344;50.364;8.944;2022-11-15T14:00:44;21.70;1.00
29353;DHT22;16344;50.364;8.944;2022-11-15T14:03:28;21.70;1.00
29353;DHT22;16344;50.364;8.944;2022-11-15T14:06:08;21.60;1.00
29353;DHT22;16344;50.364;8.944;2022-11-15T14:08:38;21.70;1.00
29353;DHT22;16344;50.364;8.944;2022-11-15T14:13:33;21.90;1.00
29353;DHT22;16344;50.364;8.944;2022-11-15T14:16:16;21.90;1.00
29353;DHT22;16344;50.364;8.944;2022-11-15T14:18:49;21.90;1.00
29353;DHT22;16344;50.364;8.944;2022-11-15T14:21:16;21.90;1.00
29353;DHT22;16344;50.364;8.944;2022-11-15T14:23:42;21.90;1.00
29353;DHT22;16344;50.364;8.944;2022-11-15T14:26:28;21.90;1.00
29353;DHT22;16344;50.364;8.944;2022-11-15T14:28:54;21.90;1.00
29353;DHT22;16344;50.364;8.944;2022-11-15T14:31:20;21.90;1.00
29353;DHT22;16344;50.364;8.944;2022-11-15T14:33:46;21.90;1.00
29353;DHT22;16344;50.364;8.944;2022-11-15T14:36:19;21.70;1.00
29353;DHT22;16344;50.364;8.944;2022-11-15T14:38:45;21.70;1.00
29353;DHT22;16344;50.364;8.944;2022-11-15T14:41:22;21.60;1.00
29353;DHT22;16344;50.364;8.944;2022-11-15T14:43:49;21.60;1.00
29353;DHT22;16344;50.364;8.944;2022-11-15T14:46:15;21.80;1.00
29353;DHT22;16344;50.364;8.944;2022-11-15T14:48:41;21.90;1.00
29353;DHT22;16344;50.364;8.944;2022-11-15T14:51:12;21.90;1.00
29353;DHT22;16344;50.364;8.944;2022-11-15T14:53:39;21.90;1.00
29353;DHT22;16344;50.364;8.944;2022-11-15T14:56:04;21.90;1.00
29353;DHT22;16344;50.364;8.944;2022-11-15T14:58:30;21.90;1.00
29353;DHT22;16344;50.364;8.944;2022-11-15T15:00:55;21.90;1.00
29353;DHT22;16344;50.364;8.944;2022-11-15T15:03:21;22.00;1.00
29353;DHT22;16344;50.364;8.944;2022-11-15T15:05:47;21.90;1.00
29353;DHT22;16344;50.364;8.944;2022-11-15T15:08:12;21.90;1.00
29353;DHT22;16344;50.364;8.944;2022-11-15T15:10:41;21.90;1.00
29353;DHT22;16344;50.364;8.944;2022-11-15T15:13:16;21.80;1.00
29353;DHT22;16344;50.364;8.944;2022-11-15T15:15:42;21.70;1.00
29353;DHT22;16344;50.364;8.944;2022-11-15T15:18:08;21.70;1.00
29353;DHT22;16344;50.364;8.944;2022-11-15T15:20:35;21.60;1.00
29353;DHT22;16344;50.364;8.944;2022-11-15T15:23:03;21.70;1.00
29353;DHT22;16344;50.364;8.944;2022-11-15T15:25:31;21.80;1.00
29353;DHT22;16344;50.364;8.944;2022-11-15T15:27:58;21.90;1.00
29353;DHT22;16344;50.364;8.944;2022-11-15T15:30:24;21.90;1.00
29353;DHT22;16344;50.364;8.944;2022-11-15T15:32:50;21.90;1.00
29353;DHT22;16344;50.364;8.944;2022-11-15T15:35:17;21.90;1.00
29353;DHT22;16344;50.364;8.944;2022-11-15T15:37:44;21.90;1.00
29353;DHT22;16344;50.364;8.944;2022-11-15T15:40:19;21.90;1.00
29353;DHT22;16344;50.364;8.944;2022-11-15T15:42:45;21.90;1.00
29353;DHT22;16344;50.364;8.944;2022-11-15T15:45:11;21.80;1.00
29353;DHT22;16344;50.364;8.944;2022-11-15T15:47:37;21.80;1.00
29353;DHT22;16344;50.364;8.944;2022-11-15T15:50:14;21.80;1.00
29353;DHT22;16344;50.364;8.944;2022-11-15T15:52:41;21.70;1.00
29353;DHT22;16344;50.364;8.944;2022-11-15T15:55:07;21.70;1.00
29353;DHT22;16344;50.364;8.944;2022-11-15T15:57:32;21.60;1.00
29353;DHT22;16344;50.364;8.944;2022-11-15T15:59:58;21.70;1.00
29353;DHT22;16344;50.364;8.944;2022-11-15T16:02:23;21.70;1.00
29353;DHT22;16344;50.364;8.944;2022-11-15T16:04:49;21.80;1.00
29353;DHT22;16344;50.364;8.944;2022-11-15T16:07:22;21.80;1.00
29353;DHT22;16344;50.364;8.944;2022-11-15T16:09:50;21.90;1.00
29353;DHT22;16344;50.364;8.944;2022-11-15T16:12:25;21.90;1.00
29353;DHT22;16344;50.364;8.944;2022-11-15T16:14:51;21.90;1.00
29353;DHT22;16344;50.364;8.944;2022-11-15T16:17:19;21.90;1.00
29353;DHT22;16344;50.364;8.944;2022-11-15T16:19:45;21.90;1.00
29353;DHT22;16344;50.364;8.944;2022-11-15T16:22:11;21.90;1.00
29353;DHT22;16344;50.364;8.944;2022-11-15T16:24:36;21.80;1.00
29353;DHT22;16344;50.364;8.944;2022-11-15T16:27:02;21.70;1.00
29353;DHT22;16344;50.364;8.944;2022-11-15T16:29:28;21.70;1.00
29353;DHT22;16344;50.364;8.944;2022-11-15T16:31:53;21.70;1.00
29353;DHT22;16344;50.364;8.944;2022-11-15T16:34:19;21.70;1.00
29353;DHT22;16344;50.364;8.944;2022-11-15T16:36:44;21.70;1.00
29353;DHT22;16344;50.364;8.944;2022-11-15T16:39:14;21.70;1.00
29353;DHT22;16344;50.364;8.944;2022-11-15T16:41:40;21.70;1.00
29353;DHT22;16344;50.364;8.944;2022-11-15T16:44:08;21.70;1.00
29353;DHT22;16344;50.364;8.944;2022-11-15T16:46:33;21.80;1.00
29353;DHT22;16344;50.364;8.944;2022-11-15T16:48:59;21.80;1.00
29353;DHT22;16344;50.364;8.944;2022-11-15T16:51:25;21.90;1.00
29353;DHT22;16344;50.364;8.944;2022-11-15T16:53:50;21.80;1.00
29353;DHT22;16344;50.364;8.944;2022-11-15T16:58:45;21.80;1.00
29353;DHT22;16344;50.364;8.944;2022-11-15T17:01:17;21.80;1.00
29353;DHT22;16344;50.364;8.944;2022-11-15T17:03:43;21.60;1.00
29353;DHT22;16344;50.364;8.944;2022-11-15T17:06:10;21.60;1.00
29353;DHT22;16344;50.364;8.944;2022-11-15T17:08:36;21.60;1.00
29353;DHT22;16344;50.364;8.944;2022-11-15T17:11:08;21.60;1.00
29353;DHT22;16344;50.364;8.944;2022-11-15T17:13:34;21.50;1.00
29353;DHT22;16344;50.364;8.944;2022-11-15T17:16:08;21.60;1.00
29353;DHT22;16344;50.364;8.944;2022-11-15T17:18:34;21.70;1.00
29353;DHT22;16344;50.364;8.944;2022-11-15T17:21:09;21.80;1.00
29353;DHT22;16344;50.364;8.944;2022-11-15T17:23:36;21.70;1.00
29353;DHT22;16344;50.364;8.944;2022-11-15T17:26:02;21.80;1.00
29353;DHT22;16344;50.364;8.944;2022-11-15T17:28:33;21.70;1.00
29353;DHT22;16344;50.364;8.944;2022-11-15T17:30:59;21.70;1.00
29353;DHT22;16344;50.364;8.944;2022-11-15T17:33:25;21.70;1.00
29353;DHT22;16344;50.364;8.944;2022-11-15T17:35:58;21.70;1.00
29353;DHT22;16344;50.364;8.944;2022-11-15T17:38:23;21.70;1.00
29353;DHT22;16344;50.364;8.944;2022-11-15T17:41:11;21.70;1.00
29353;DHT22;16344;50.364;8.944;2022-11-15T17:43:37;21.60;1.00
29353;DHT22;16344;50.364;8.944;2022-11-15T17:46:05;21.60;1.00
29353;DHT22;16344;50.364;8.944;2022-11-15T17:48:31;21.60;1.00
29353;DHT22;16344;50.364;8.944;2022-11-15T17:50:59;21.60;1.00